x

Ilm3 - 27 Miles Se Of Wrightsville Beach, Nc (41037) Weather Station

3:08am - Sat 22nd Jul 2017 All times are EDT. -4 hours from GMT.

  • Wind
    13mph, 20mph gusts
  • Sea Temp 81°f
  • Air Temp 81°f
  • Sea Pressure 1015.6mb
  • Ilm3 - 27 Miles Se Of Wrightsville Beach, Nc
  • Ilm3 - 27 Miles Se Of Wrightsville Beach, Nc

More Historic Weather Station data

Upgrade to MSW Pro to gain access to the past 30 days of data for over 8000 Wavebouys and Weather Stations around the globe.

Join Pro

Comparision Forecast

View Surf forecast
   
Sat 07/22 3:08am 13 20 mph 1015.6mb 81f 81f
2:08am 13 20 mph 1015.9mb 81f 82f
1:08am 16 22 mph 1016.3mb 81f 82f
12:08am 16 22 mph 1016.1mb 81f 82f
Fri 07/21 11:08pm 18 27 mph 1016.5mb 81f 82f
10:08pm 18 25 mph 1016.4mb 81f 82f
9:08pm 18 22 mph 1016.1mb 81f 82f
8:08pm 16 20 mph 1015.9mb 81f 82f
7:08pm 16 22 mph 1015.6mb 82f 82f
6:08pm 16 20 mph 1015.3mb 82f 83f
5:08pm 16 22 mph 1015.3mb 82f 82f
4:08pm 16 20 mph 1015.9mb 82f 82f
3:08pm 16 22 mph 1016.2mb 81f 82f
2:08pm 13 20 mph 1016.7mb 81f 82f
1:08pm 11 18 mph 1017.3mb 81f 82f
12:08pm 13 18 mph 1017.5mb 81f 82f
11:08am 13 18 mph 1017.8mb 81f 82f
10:08am 13 18 mph 1017.6mb 81f 81f
9:08am 11 16 mph 1017.2mb 81f 81f
8:08am 11 16 mph 1016.8mb 81f 81f
7:08am 13 18 mph 1016.3mb 81f 81f
6:08am 11 16 mph 1015.8mb 81f 81f
5:08am 11 16 mph 1015.2mb 81f 81f
4:08am 11 13 mph 1015.4mb 81f 81f
3:08am 11 16 mph 1016mb 81f 81f
2:08am 11 16 mph 1016.5mb 81f 81f
1:08am 11 18 mph 1016.8mb 81f 81f
12:08am 13 18 mph 1017.3mb 81f 82f
Thu 07/20 11:08pm 13 20 mph 1017.3mb 81f 82f
10:08pm 16 20 mph 1016.7mb 82f 82f
9:08pm 13 16 mph 1016.6mb 82f 82f
8:08pm 11 16 mph 1015.9mb 82f 82f
7:08pm 11 16 mph 1015.4mb 82f 82f
6:08pm 9 13 mph 1015.4mb 82f 82f
5:08pm 9 13 mph 1016.2mb 82f 82f
4:08pm 9 11 mph 1017.3mb 82f 82f
3:08pm 7 9 mph 1017.8mb 82f 82f
2:08pm 7 9 mph 1018.3mb 82f 81f
1:08pm 2 4 mph 1018.9mb 81f 82f
12:08pm 2 4 mph 1019.1mb 81f 81f
11:08am 2 7 mph 1018.8mb 81f 80f
10:08am 7 11 mph 1018.6mb 80f 79f
9:08am 9 13 mph 1018.5mb 80f 79f
8:08am 13 18 mph 1018.5mb 80f 78f
7:08am 13 18 mph 1018mb 80f 78f
6:08am 13 18 mph 1017.8mb 81f 78f
5:08am 11 13 mph 1017.5mb 81f 79f
4:08am 9 11 mph 1017.2mb 81f 80f
3:08am 7 11 mph 1017.4mb 81f 80f
2:08am 9 11 mph 1017.6mb 81f 80f
1:08am 7 9 mph 1018.1mb 81f 80f
12:08am 9 11 mph 1018.2mb 82f 81f
Wed 07/19 11:08pm 9 11 mph 1018.5mb 82f 80f
10:08pm 7 9 mph 1018.6mb 82f 80f
9:08pm 7 9 mph 1018.4mb 83f 80f
8:08pm 4 9 mph 1018.4mb 83f 80f
7:08pm 7 11 mph 1018mb 84f 81f
6:08pm 4 9 mph 1017.7mb 83f 82f
5:08pm 7 9 mph 1017.4mb 83f 82f
4:08pm 4 9 mph 1017.9mb 82f 82f
3:08pm 4 9 mph 1018.6mb 82f 82f
2:08pm 2 4 mph 1018.8mb 81f 82f
1:08pm 4 7 mph 1019.2mb 81f 80f
12:08pm 2 2 mph 1020mb 81f 82f
11:08am 2 4 mph 1020.1mb 81f 81f
10:08am 4 7 mph 1020mb 81f 80f
9:08am 4 7 mph 1019.8mb 81f 80f
8:08am 2 4 mph 1019.7mb 81f 80f
7:08am 4 7 mph 1019.3mb 81f 80f
6:08am 2 4 mph 1019.2mb 80f 80f
5:08am 4 7 mph 1018.7mb 80f 79f
3:08am 7 11 mph 1019.2mb 80f 80f
2:08am 9 11 mph 1019.4mb 80f 80f
1:08am 9 11 mph 1019.5mb 80f 80f
12:08am 9 13 mph 1019.9mb 80f 80f
Tue 07/18 11:08pm 7 9 mph 1020mb 81f 80f
10:08pm 9 11 mph 1019.7mb 81f 80f
9:08pm 9 13 mph 1019.2mb 81f 80f
8:08pm 11 18 mph 1018.6mb 81f 80f
7:08pm 13 18 mph 1018.4mb 81f 80f
6:08pm 7 11 mph 1018.9mb 81f 80f
5:08pm 4 7 mph 1019.1mb 81f 80f
4:08pm 9 11 mph 1018.7mb 81f 80f
3:08pm 11 16 mph 1019.5mb 81f 79f
2:08pm 11 16 mph 1020mb 81f 79f
1:08pm 9 11 mph 1020.3mb 81f 78f
12:08pm 11 16 mph 1019.8mb 81f 79f
11:08am 4 9 mph 1019.7mb 81f 78f
10:08am 11 18 mph 1020.2mb 81f 76f
9:08am 16 25 mph 1020.3mb 81f 75f